createdAt,value
2019-05-05T00:00:18.676Z,1003.84
2019-05-05T00:01:18.616Z,1003.87
2019-05-05T00:02:18.605Z,1003.90
2019-05-05T00:03:18.594Z,1003.87
2019-05-05T00:04:18.855Z,1003.89
2019-05-05T00:05:18.565Z,1003.90
2019-05-05T00:06:18.617Z,1003.86
2019-05-05T00:07:18.554Z,1003.88
2019-05-05T00:08:18.535Z,1003.87
2019-05-05T00:09:18.609Z,1003.86
2019-05-05T00:10:18.802Z,1003.86
2019-05-05T00:11:18.513Z,1003.87
2019-05-05T00:12:18.547Z,1003.86
2019-05-05T00:13:18.485Z,1003.93
2019-05-05T00:14:18.493Z,1003.84
2019-05-05T00:15:18.464Z,1003.92
2019-05-05T00:16:18.453Z,1003.88
2019-05-05T00:17:18.443Z,1003.86
2019-05-05T00:18:18.472Z,1003.88
2019-05-05T00:19:29.846Z,1003.87
2019-05-05T00:20:19.413Z,1003.90
2019-05-05T00:21:18.682Z,1003.92
2019-05-05T00:22:18.391Z,1003.94
2019-05-05T00:23:18.382Z,1003.94
2019-05-05T00:24:18.472Z,1003.95
2019-05-05T00:25:18.371Z,1003.95
2019-05-05T00:26:18.352Z,1003.96
2019-05-05T00:27:18.339Z,1004.00
2019-05-05T00:28:18.612Z,1004.00
2019-05-05T00:29:18.322Z,1003.98
2019-05-05T00:30:18.373Z,1003.97
2019-05-05T00:31:18.301Z,1003.97
2019-05-05T00:32:18.291Z,1004.00
2019-05-05T00:33:18.279Z,1003.98
2019-05-05T00:34:18.273Z,1003.98
2019-05-05T00:35:18.541Z,1004.02
2019-05-05T00:36:18.281Z,1004.00
2019-05-05T00:37:18.244Z,1004.00
2019-05-05T00:38:18.227Z,1004.01
2019-05-05T00:39:18.211Z,1004.01
2019-05-05T00:40:18.206Z,1004.00
2019-05-05T00:41:18.190Z,1004.00
2019-05-05T00:42:18.527Z,1004.02
2019-05-05T00:43:18.179Z,1004.07
2019-05-05T00:44:18.160Z,1004.05
2019-05-05T00:45:18.149Z,1004.00
2019-05-05T00:46:18.158Z,1004.04
2019-05-05T00:47:18.128Z,1004.11
2019-05-05T00:48:18.157Z,1004.05
2019-05-05T00:49:18.398Z,1004.06
2019-05-05T00:50:18.112Z,1004.07
2019-05-05T00:51:18.091Z,1004.04
2019-05-05T00:52:18.080Z,1004.04
2019-05-05T00:53:18.068Z,1004.06
2019-05-05T00:54:18.109Z,1004.06
2019-05-05T00:55:18.047Z,1004.06
2019-05-05T00:56:18.318Z,1004.04
2019-05-05T00:57:18.027Z,1004.07
2019-05-05T00:58:18.008Z,1004.08
2019-05-05T00:59:18.006Z,1004.06
2019-05-05T01:00:18.127Z,1004.06
2019-05-05T01:01:17.989Z,1004.03
2019-05-05T01:02:18.028Z,1004.06
2019-05-05T01:03:18.356Z,1004.04
2019-05-05T01:04:17.954Z,1004.05
2019-05-05T01:05:17.943Z,1004.04
2019-05-05T01:06:18.078Z,1004.04
2019-05-05T01:07:17.923Z,1004.08
2019-05-05T01:08:17.905Z,1004.11
2019-05-05T01:09:17.904Z,1004.14
2019-05-05T01:10:17.886Z,1004.12
2019-05-05T01:11:17.875Z,1004.09
2019-05-05T01:12:17.926Z,1004.09
2019-05-05T01:13:17.854Z,1004.10
2019-05-05T01:14:17.853Z,1004.09
2019-05-05T01:15:18.122Z,1004.13
2019-05-05T01:16:17.824Z,1004.12
2019-05-05T01:17:17.814Z,1004.10
2019-05-05T01:18:17.863Z,1004.13
2019-05-05T01:19:17.793Z,1004.09
2019-05-05T01:20:17.783Z,1004.06
2019-05-05T01:21:17.782Z,1004.11
2019-05-05T01:22:17.762Z,1004.13
2019-05-05T01:23:17.753Z,1004.09
2019-05-05T01:24:17.795Z,1004.13
2019-05-05T01:25:17.733Z,1004.11
2019-05-05T01:26:17.725Z,1004.11
2019-05-05T01:27:17.992Z,1004.12
2019-05-05T01:28:17.701Z,1004.11
2019-05-05T01:29:17.693Z,1004.12
2019-05-05T01:30:17.733Z,1004.15
2019-05-05T01:31:17.682Z,1004.14
2019-05-05T01:32:17.652Z,1004.11
2019-05-05T01:33:17.651Z,1004.13
2019-05-05T01:34:17.630Z,1004.10
2019-05-05T01:35:17.622Z,1004.11
2019-05-05T01:36:18.421Z,1004.14
2019-05-05T01:37:17.601Z,1004.14
2019-05-05T01:38:17.593Z,1004.09
2019-05-05T01:39:17.587Z,1004.13
2019-05-05T01:40:17.573Z,1004.15
2019-05-05T01:41:17.560Z,1004.20
2019-05-05T01:42:17.609Z,1004.15
2019-05-05T01:43:17.539Z,1004.16
2019-05-05T01:44:17.530Z,1004.21
2019-05-05T01:45:17.807Z,1004.19
2019-05-05T01:46:17.511Z,1004.21
2019-05-05T01:47:17.499Z,1004.22
2019-05-05T01:48:17.529Z,1004.21
2019-05-05T01:49:17.478Z,1004.24
2019-05-05T01:50:21.238Z,1004.27
2019-05-05T01:51:17.464Z,1004.29
2019-05-05T01:52:17.449Z,1004.27
2019-05-05T01:53:17.448Z,1004.27
2019-05-05T01:54:17.561Z,1004.30
2019-05-05T01:55:17.418Z,1004.29
2019-05-05T01:56:17.407Z,1004.30
2019-05-05T01:57:17.678Z,1004.30
2019-05-05T01:58:17.397Z,1004.31
2019-05-05T01:59:17.378Z,1004.32
2019-05-05T02:01:39.358Z,1004.29
2019-05-05T02:02:39.266Z,1004.31
2019-05-05T02:03:39.280Z,1004.25
2019-05-05T02:04:39.268Z,1004.27
2019-05-05T02:05:39.245Z,1004.29
2019-05-05T02:06:39.308Z,1004.28
2019-05-05T02:07:39.567Z,1004.28
2019-05-05T02:08:39.216Z,1004.29
2019-05-05T02:09:39.227Z,1004.29
2019-05-05T02:10:39.218Z,1004.29
2019-05-05T02:11:39.201Z,1004.26
2019-05-05T02:12:39.217Z,1004.28
2019-05-05T02:13:39.228Z,1004.32
2019-05-05T02:14:39.156Z,1004.32
2019-05-05T02:15:39.192Z,1004.34
2019-05-05T02:16:39.186Z,1004.30
2019-05-05T02:17:39.149Z,1004.37
2019-05-05T02:18:39.107Z,1004.35
2019-05-05T02:19:40.140Z,1004.34
2019-05-05T02:20:39.114Z,1004.35
2019-05-05T02:21:39.075Z,1004.36
2019-05-05T02:22:39.215Z,1004.36
2019-05-05T02:23:39.072Z,1004.36
2019-05-05T02:24:39.066Z,1004.36
2019-05-05T02:25:39.585Z,1004.39
2019-05-05T02:26:39.036Z,1004.38
2019-05-05T02:27:39.036Z,1004.36
2019-05-05T02:28:39.073Z,1004.38
2019-05-05T02:29:39.186Z,1004.37
2019-05-05T02:30:39.055Z,1004.40
2019-05-05T02:31:39.054Z,1004.39
2019-05-05T02:32:38.975Z,1004.39
2019-05-05T02:33:38.977Z,1004.45
2019-05-05T02:34:38.942Z,1004.40
2019-05-05T02:35:38.974Z,1004.44
2019-05-05T02:36:38.974Z,1004.43
2019-05-05T02:37:39.786Z,1004.48
2019-05-05T02:38:38.938Z,1004.45
2019-05-05T02:39:45.072Z,1004.43
2019-05-05T02:40:39.900Z,1004.45
2019-05-05T02:41:38.882Z,1004.44
2019-05-05T02:42:38.911Z,1004.46
2019-05-05T02:43:38.933Z,1004.44
2019-05-05T02:44:38.865Z,1004.52
2019-05-05T02:45:38.900Z,1004.46
2019-05-05T02:46:38.841Z,1004.53
2019-05-05T02:47:38.811Z,1004.52
2019-05-05T02:48:38.804Z,1004.46
2019-05-05T02:49:39.175Z,1004.50
2019-05-05T02:50:50.979Z,1004.49
2019-05-05T02:51:39.810Z,1004.51
2019-05-05T02:52:38.768Z,1004.51
2019-05-05T02:53:38.740Z,1004.53
2019-05-05T02:54:38.739Z,1004.48
2019-05-05T02:55:38.848Z,1004.51
2019-05-05T02:56:39.097Z,1004.53
2019-05-05T02:57:38.714Z,1004.48
2019-05-05T02:58:38.729Z,1004.49
2019-05-05T02:59:38.692Z,1004.47
2019-05-05T03:00:38.697Z,1004.51
2019-05-05T03:01:38.723Z,1004.46
2019-05-05T03:02:38.720Z,1004.47
2019-05-05T03:03:38.977Z,1004.41
2019-05-05T03:04:38.659Z,1004.45
2019-05-05T03:05:38.634Z,1004.48
2019-05-05T03:06:38.638Z,1004.48
2019-05-05T03:07:38.707Z,1004.41
2019-05-05T03:08:38.605Z,1004.49
2019-05-05T03:09:38.597Z,1004.52
2019-05-05T03:10:38.855Z,1004.56
2019-05-05T03:11:38.577Z,1004.57
2019-05-05T03:12:38.564Z,1004.53
2019-05-05T03:13:38.615Z,1004.52
2019-05-05T03:14:38.531Z,1004.54
2019-05-05T03:15:38.533Z,1004.52
2019-05-05T03:16:38.541Z,1004.53
2019-05-05T03:17:38.847Z,1004.55
2019-05-05T03:18:38.498Z,1004.53
2019-05-05T03:19:38.574Z,1004.55
2019-05-05T03:20:38.464Z,1004.49
2019-05-05T03:21:38.465Z,1004.54
2019-05-05T03:22:38.486Z,1004.55
2019-05-05T03:23:38.442Z,1004.56
2019-05-05T03:24:38.738Z,1004.55
2019-05-05T03:25:38.495Z,1004.52
2019-05-05T03:26:38.394Z,1004.54
2019-05-05T03:27:38.423Z,1004.53
2019-05-05T03:28:38.415Z,1004.55
2019-05-05T03:29:38.360Z,1004.59
2019-05-05T03:30:38.354Z,1004.61
2019-05-05T03:31:38.493Z,1004.58
2019-05-05T03:32:38.341Z,1004.60
2019-05-05T03:33:38.358Z,1004.62
2019-05-05T03:34:38.355Z,1004.62
2019-05-05T03:35:38.312Z,1004.64
2019-05-05T03:36:38.331Z,1004.69
2019-05-05T03:37:38.638Z,1004.70
2019-05-05T03:38:38.300Z,1004.78
2019-05-05T03:39:38.281Z,1004.78
2019-05-05T03:40:38.263Z,1004.79
2019-05-05T03:41:38.239Z,1004.77
2019-05-05T03:42:38.251Z,1004.79
2019-05-05T03:43:38.291Z,1004.77
2019-05-05T03:44:38.220Z,1004.76
2019-05-05T03:45:38.209Z,1004.75
2019-05-05T03:46:38.220Z,1004.75
2019-05-05T03:47:38.178Z,1004.72
2019-05-05T03:48:38.196Z,1004.77
2019-05-05T03:49:38.544Z,1004.77
2019-05-05T03:50:38.161Z,1004.80
2019-05-05T03:51:38.131Z,1004.76
2019-05-05T03:52:38.127Z,1004.73
2019-05-05T03:53:38.120Z,1004.76
2019-05-05T03:54:38.193Z,1004.81
2019-05-05T03:55:38.497Z,1004.72
2019-05-05T03:56:38.114Z,1004.75
2019-05-05T03:57:38.077Z,1004.78
2019-05-05T03:58:38.072Z,1004.74
2019-05-05T03:59:38.045Z,1004.74
2019-05-05T04:00:38.094Z,1004.74
2019-05-05T04:01:38.079Z,1004.77
2019-05-05T04:02:38.027Z,1004.81
2019-05-05T04:03:38.017Z,1004.78
2019-05-05T04:04:38.037Z,1004.81
2019-05-05T04:05:37.993Z,1004.82
2019-05-05T04:06:37.967Z,1004.81
2019-05-05T04:07:38.630Z,1004.79
2019-05-05T04:08:37.951Z,1004.81
2019-05-05T04:09:37.949Z,1004.82
2019-05-05T04:10:37.974Z,1004.81
2019-05-05T04:11:37.965Z,1004.86
2019-05-05T04:12:37.945Z,1004.92
2019-05-05T04:13:38.003Z,1004.96
2019-05-05T04:14:37.924Z,1004.97
2019-05-05T04:15:37.886Z,1004.96
2019-05-05T04:16:37.872Z,1004.95
2019-05-05T04:17:37.887Z,1005.00
2019-05-05T04:18:37.904Z,1005.00
2019-05-05T04:19:38.196Z,1005.01
2019-05-05T04:20:37.863Z,1005.05
2019-05-05T04:21:37.861Z,1005.03
2019-05-05T04:22:37.805Z,1005.03
2019-05-05T04:23:37.823Z,1005.08
2019-05-05T04:24:37.815Z,1005.03
2019-05-05T04:25:37.947Z,1005.05
2019-05-05T04:26:38.075Z,1005.08
2019-05-05T04:27:37.802Z,1005.08
2019-05-05T04:28:37.761Z,1005.04
2019-05-05T04:29:37.791Z,1005.11
2019-05-05T04:30:37.780Z,1005.08
2019-05-05T04:31:37.780Z,1005.05
2019-05-05T04:32:37.724Z,1005.08
2019-05-05T04:33:37.730Z,1005.06
2019-05-05T04:34:37.702Z,1005.01
2019-05-05T04:35:37.671Z,1005.11
2019-05-05T04:36:37.694Z,1005.11
2019-05-05T04:37:37.818Z,1005.12
2019-05-05T04:38:37.651Z,1005.12
2019-05-05T04:39:37.909Z,1005.20
2019-05-05T04:40:37.649Z,1005.21
2019-05-05T04:41:37.648Z,1005.27
2019-05-05T04:42:37.589Z,1005.27
2019-05-05T04:43:37.696Z,1005.30
2019-05-05T04:44:37.599Z,1005.31
2019-05-05T04:45:37.578Z,1005.37
2019-05-05T04:46:37.859Z,1005.40
2019-05-05T04:47:37.560Z,1005.39
2019-05-05T04:48:37.578Z,1005.41
2019-05-05T04:49:37.638Z,1005.41
2019-05-05T04:50:37.524Z,1005.37
2019-05-05T04:51:46.997Z,1005.31
2019-05-05T04:52:38.497Z,1005.36
2019-05-05T04:53:37.767Z,1005.45
2019-05-05T04:54:37.487Z,1005.48
2019-05-05T04:55:37.551Z,1005.41
2019-05-05T04:56:37.501Z,1005.46
2019-05-05T04:57:37.445Z,1005.46
2019-05-05T04:58:37.455Z,1005.45
2019-05-05T04:59:37.441Z,1005.48
2019-05-05T05:00:37.697Z,1005.52
2019-05-05T05:01:37.736Z,1005.46
2019-05-05T05:02:37.386Z,1005.49
2019-05-05T05:03:37.375Z,1005.49
2019-05-05T05:04:37.375Z,1005.45
2019-05-05T05:05:37.363Z,1005.47
2019-05-05T05:06:37.479Z,1005.47
2019-05-05T05:07:37.726Z,1005.50
2019-05-05T05:08:37.325Z,1005.54
2019-05-05T05:09:37.331Z,1005.49
2019-05-05T05:10:37.317Z,1005.49
2019-05-05T05:11:37.318Z,1005.54
2019-05-05T05:12:37.285Z,1005.51
2019-05-05T05:13:37.346Z,1005.50
2019-05-05T05:14:37.543Z,1005.48
2019-05-05T05:15:37.277Z,1005.47
2019-05-05T05:16:37.236Z,1005.47
2019-05-05T05:17:37.272Z,1005.45
2019-05-05T05:18:37.246Z,1005.53
2019-05-05T05:19:37.370Z,1005.54
2019-05-05T05:20:37.482Z,1005.55
2019-05-05T05:21:37.192Z,1005.54
2019-05-05T05:22:37.199Z,1005.61
2019-05-05T05:23:37.248Z,1005.61
2019-05-05T05:24:37.225Z,1005.62
2019-05-05T05:25:37.230Z,1005.63
2019-05-05T05:26:37.194Z,1005.60
2019-05-05T05:27:37.150Z,1005.60
2019-05-05T05:28:37.129Z,1005.64
2019-05-05T05:29:37.149Z,1005.66
2019-05-05T05:30:37.166Z,1005.66
2019-05-05T05:31:37.491Z,1005.70
2019-05-05T05:32:39.745Z,1005.71
2019-05-05T05:33:37.069Z,1005.72
2019-05-05T05:34:37.097Z,1005.73
2019-05-05T05:35:37.083Z,1005.69
2019-05-05T05:36:37.095Z,1005.72
2019-05-05T05:37:37.169Z,1005.76
2019-05-05T05:38:37.028Z,1005.80
2019-05-05T05:39:37.019Z,1005.81
2019-05-05T05:40:37.011Z,1005.85
2019-05-05T05:41:36.990Z,1005.84
2019-05-05T05:42:36.968Z,1005.87
2019-05-05T05:43:37.326Z,1005.86
2019-05-05T05:44:36.958Z,1005.87
2019-05-05T05:45:36.945Z,1005.89
2019-05-05T05:46:36.964Z,1005.93
2019-05-05T05:47:36.927Z,1005.93
2019-05-05T05:48:36.917Z,1005.96
2019-05-05T05:49:37.236Z,1005.97
2019-05-05T05:50:36.890Z,1006.05
2019-05-05T05:51:36.881Z,1006.04
2019-05-05T05:52:36.867Z,1006.03
2019-05-05T05:53:37.816Z,1006.04
2019-05-05T05:54:36.856Z,1006.07
2019-05-05T05:55:37.268Z,1006.09
2019-05-05T05:56:36.853Z,1006.15
2019-05-05T05:57:36.844Z,1006.13
2019-05-05T05:58:36.849Z,1006.13
2019-05-05T05:59:36.795Z,1006.16
2019-05-05T06:00:36.791Z,1006.14
2019-05-05T06:01:37.177Z,1006.18
2019-05-05T06:02:36.764Z,1006.16
2019-05-05T06:03:36.821Z,1006.20
2019-05-05T06:04:36.795Z,1006.18
2019-05-05T06:05:36.764Z,1006.22
2019-05-05T06:06:36.747Z,1006.22
2019-05-05T06:07:36.793Z,1006.21
2019-05-05T06:08:37.032Z,1006.18
2019-05-05T06:09:36.702Z,1006.24
2019-05-05T06:10:36.709Z,1006.16
2019-05-05T06:11:36.704Z,1006.18
2019-05-05T06:12:36.685Z,1006.20
2019-05-05T06:13:36.683Z,1006.20
2019-05-05T06:14:36.642Z,1006.17
2019-05-05T06:15:37.051Z,1006.19
2019-05-05T06:16:36.637Z,1006.15
2019-05-05T06:17:36.625Z,1006.17
2019-05-05T06:18:36.609Z,1006.17
2019-05-05T06:19:36.655Z,1006.21
2019-05-05T06:20:36.592Z,1006.24
2019-05-05T06:21:36.562Z,1006.24
2019-05-05T06:22:36.872Z,1006.28
2019-05-05T06:23:36.578Z,1006.31
2019-05-05T06:24:36.573Z,1006.25
2019-05-05T06:25:38.112Z,1006.30
2019-05-05T06:26:36.594Z,1006.31
2019-05-05T06:27:36.501Z,1006.30
2019-05-05T06:28:36.495Z,1006.33
2019-05-05T06:29:37.803Z,1006.36
2019-05-05T06:30:36.482Z,1006.37
2019-05-05T06:31:36.994Z,1006.35
2019-05-05T06:32:36.461Z,1006.33
2019-05-05T06:33:36.470Z,1006.33
2019-05-05T06:34:36.596Z,1006.33
2019-05-05T06:35:36.760Z,1006.33
2019-05-05T06:36:36.927Z,1006.36
2019-05-05T06:37:36.500Z,1006.36
2019-05-05T06:38:38.143Z,1006.33
2019-05-05T06:39:36.390Z,1006.39
2019-05-05T06:40:36.386Z,1006.39
2019-05-05T06:41:36.385Z,1006.42
2019-05-05T06:42:36.379Z,1006.40
2019-05-05T06:43:36.665Z,1006.38
2019-05-05T06:44:36.366Z,1006.37
2019-05-05T06:45:36.341Z,1006.38
2019-05-05T06:46:36.313Z,1006.35
2019-05-05T06:47:36.317Z,1006.36
2019-05-05T06:48:36.319Z,1006.39
2019-05-05T06:49:36.328Z,1006.38
2019-05-05T06:50:36.297Z,1006.38
2019-05-05T06:51:36.249Z,1006.39
2019-05-05T06:52:44.364Z,1006.50
2019-05-05T06:53:37.333Z,1006.40
2019-05-05T06:54:36.245Z,1006.40
2019-05-05T06:55:36.537Z,1006.42
2019-05-05T06:56:36.216Z,1006.38
2019-05-05T06:57:36.218Z,1006.38
2019-05-05T06:58:36.177Z,1006.41
2019-05-05T06:59:36.197Z,1006.37
2019-05-05T07:00:36.178Z,1006.40
2019-05-05T07:01:36.245Z,1006.42
2019-05-05T07:02:36.136Z,1006.42
2019-05-05T07:03:36.126Z,1006.45
2019-05-05T07:04:36.165Z,1006.46
2019-05-05T07:05:36.146Z,1006.41
2019-05-05T07:06:36.123Z,1006.48
2019-05-05T07:07:36.515Z,1006.44
2019-05-05T07:08:36.082Z,1006.44
2019-05-05T07:09:36.083Z,1006.44
2019-05-05T07:10:36.083Z,1006.43
2019-05-05T07:11:36.089Z,1006.42
2019-05-05T07:12:36.052Z,1006.42
2019-05-05T07:13:36.385Z,1006.49
2019-05-05T07:14:36.107Z,1006.47
2019-05-05T07:15:37.051Z,1006.46
2019-05-05T07:16:36.382Z,1006.46
2019-05-05T07:17:36.003Z,1006.48
2019-05-05T07:18:36.042Z,1006.53
2019-05-05T07:19:36.874Z,1006.56
2019-05-05T07:20:35.950Z,1006.56
2019-05-05T07:21:35.980Z,1006.56
2019-05-05T07:22:35.969Z,1006.58
2019-05-05T07:23:35.940Z,1006.64
2019-05-05T07:24:35.918Z,1006.59
2019-05-05T07:25:42.841Z,1006.61
2019-05-05T07:26:36.907Z,1006.55
2019-05-05T07:27:35.881Z,1006.58
2019-05-05T07:28:35.889Z,1006.59
2019-05-05T07:29:35.882Z,1006.58
2019-05-05T07:30:35.974Z,1006.62
2019-05-05T07:31:35.933Z,1006.62
2019-05-05T07:32:35.881Z,1006.61
2019-05-05T07:33:35.811Z,1006.60
2019-05-05T07:34:35.861Z,1006.62
2019-05-05T07:35:35.817Z,1006.62
2019-05-05T07:36:35.789Z,1006.59
2019-05-05T07:37:36.232Z,1006.65
2019-05-05T07:38:35.771Z,1006.65
2019-05-05T07:39:35.867Z,1006.67
2019-05-05T07:40:35.743Z,1006.67
2019-05-05T07:41:35.780Z,1006.66
2019-05-05T07:42:35.768Z,1006.66
2019-05-05T07:43:35.801Z,1006.71
2019-05-05T07:44:36.181Z,1006.70
2019-05-05T07:45:35.730Z,1006.70
2019-05-05T07:46:35.701Z,1006.69
2019-05-05T07:47:35.686Z,1006.73
2019-05-05T07:48:35.679Z,1006.63
2019-05-05T07:49:35.694Z,1006.67
2019-05-05T07:50:36.166Z,1006.65
2019-05-05T07:51:35.958Z,1006.64
2019-05-05T07:52:35.654Z,1006.65
2019-05-05T07:53:35.611Z,1006.62
2019-05-05T07:54:35.588Z,1006.56
2019-05-05T07:55:35.629Z,1006.54
2019-05-05T07:56:35.573Z,1006.59
2019-05-05T07:57:35.649Z,1006.62
2019-05-05T07:58:35.591Z,1006.61
2019-05-05T07:59:35.625Z,1006.61
2019-05-05T08:00:35.536Z,1006.55
2019-05-05T08:01:35.899Z,1006.59
2019-05-05T08:02:35.498Z,1006.55
2019-05-05T08:03:35.499Z,1006.56
2019-05-05T08:04:35.758Z,1006.54
2019-05-05T08:05:35.499Z,1006.60
2019-05-05T08:06:35.468Z,1006.55
2019-05-05T08:07:35.530Z,1006.52
2019-05-05T08:08:35.478Z,1006.52
2019-05-05T08:09:35.477Z,1006.58
2019-05-05T08:10:35.430Z,1006.56
2019-05-05T08:11:35.687Z,1006.52
2019-05-05T08:12:35.409Z,1006.53
2019-05-05T08:13:35.493Z,1006.53
2019-05-05T08:14:35.394Z,1006.55
2019-05-05T08:15:35.378Z,1006.50
2019-05-05T08:16:35.448Z,1006.55
2019-05-05T08:17:38.679Z,1006.55
2019-05-05T08:18:35.677Z,1006.59
2019-05-05T08:19:35.399Z,1006.55
2019-05-05T08:20:35.359Z,1006.57
2019-05-05T08:21:35.337Z,1006.49
2019-05-05T08:22:35.353Z,1006.49
2019-05-05T08:23:35.624Z,1006.51
2019-05-05T08:24:35.286Z,1006.53
2019-05-05T08:25:39.992Z,1006.57
2019-05-05T08:26:36.330Z,1006.56
2019-05-05T08:27:35.268Z,1006.50
2019-05-05T08:28:35.270Z,1006.50
2019-05-05T08:29:35.257Z,1006.53
2019-05-05T08:30:35.514Z,1006.59
2019-05-05T08:31:35.275Z,1006.57
2019-05-05T08:32:35.698Z,1006.55
2019-05-05T08:33:35.209Z,1006.54
2019-05-05T08:34:35.215Z,1006.51
2019-05-05T08:35:35.183Z,1006.57
2019-05-05T08:36:35.204Z,1006.59
2019-05-05T08:37:35.239Z,1006.53
2019-05-05T08:38:35.346Z,1006.57
2019-05-05T08:39:35.178Z,1006.56
2019-05-05T08:40:54.284Z,1006.50
2019-05-05T08:41:35.128Z,1006.50
2019-05-05T08:42:35.481Z,1006.41
2019-05-05T08:43:35.188Z,1006.45
2019-05-05T08:44:35.065Z,1006.43
2019-05-05T08:45:35.259Z,1006.42
2019-05-05T08:46:35.046Z,1006.47
2019-05-05T08:47:35.401Z,1006.41
2019-05-05T08:48:35.057Z,1006.41
2019-05-05T08:49:35.096Z,1006.52
2019-05-05T08:50:35.091Z,1006.58
2019-05-05T08:51:35.038Z,1006.50
2019-05-05T08:52:35.059Z,1006.49
2019-05-05T08:53:44.069Z,1006.58
2019-05-05T08:54:36.027Z,1006.57
2019-05-05T08:55:34.995Z,1006.58
2019-05-05T08:56:34.956Z,1006.57
2019-05-05T08:57:35.002Z,1006.59
2019-05-05T08:58:34.925Z,1006.62
2019-05-05T08:59:34.958Z,1006.57
2019-05-05T09:00:35.284Z,1006.56
2019-05-05T09:02:57.352Z,1006.61
2019-05-05T09:03:56.833Z,1006.61
2019-05-05T09:04:56.834Z,1006.66
2019-05-05T09:05:56.808Z,1006.65
2019-05-05T09:06:56.811Z,1006.73
2019-05-05T09:07:56.789Z,1006.71
2019-05-05T09:08:56.823Z,1006.71
2019-05-05T09:09:56.779Z,1006.69
2019-05-05T09:10:56.868Z,1006.68
2019-05-05T09:11:56.740Z,1006.70
2019-05-05T09:12:56.743Z,1006.70
2019-05-05T09:13:56.734Z,1006.71
2019-05-05T09:14:58.207Z,1006.74
2019-05-05T09:15:56.713Z,1006.73
2019-05-05T09:16:56.690Z,1006.74
2019-05-05T09:17:56.682Z,1006.71
2019-05-05T09:18:56.674Z,1006.70
2019-05-05T09:19:56.667Z,1006.72
2019-05-05T09:20:56.724Z,1006.73
2019-05-05T09:21:56.641Z,1006.67
2019-05-05T09:22:57.373Z,1006.82
2019-05-05T09:24:01.685Z,1006.81
2019-05-05T09:24:57.652Z,1006.77
2019-05-05T09:25:56.650Z,1006.75
2019-05-05T09:26:56.785Z,1006.78
2019-05-05T09:27:56.716Z,1006.76
2019-05-05T09:28:56.788Z,1006.77
2019-05-05T09:29:56.558Z,1006.79
2019-05-05T09:30:56.541Z,1006.82
2019-05-05T09:31:56.582Z,1006.81
2019-05-05T09:32:56.923Z,1006.81
2019-05-05T09:33:56.510Z,1006.85
2019-05-05T09:34:56.549Z,1006.82
2019-05-05T09:35:56.478Z,1006.80
2019-05-05T09:36:56.492Z,1006.81
2019-05-05T09:37:56.487Z,1006.77
2019-05-05T09:38:56.813Z,1006.82
2019-05-05T09:39:56.439Z,1006.85
2019-05-05T09:40:56.439Z,1006.84
2019-05-05T09:41:56.497Z,1006.86
2019-05-05T09:42:56.839Z,1006.81
2019-05-05T09:43:57.023Z,1006.83
2019-05-05T09:44:57.091Z,1006.80
2019-05-05T09:45:57.034Z,1006.79
2019-05-05T09:46:56.374Z,1006.72
2019-05-05T09:47:56.512Z,1006.83
2019-05-05T09:48:56.481Z,1006.78
2019-05-05T09:49:56.329Z,1006.74
2019-05-05T09:50:56.536Z,1006.79
2019-05-05T09:51:56.598Z,1006.77
2019-05-05T09:52:56.973Z,1006.73
2019-05-05T09:53:56.279Z,1006.82
2019-05-05T09:54:56.297Z,1006.79
2019-05-05T09:55:56.334Z,1006.73
2019-05-05T09:56:56.299Z,1006.68
2019-05-05T09:57:56.290Z,1006.70
2019-05-05T09:58:56.572Z,1006.71
2019-05-05T09:59:56.237Z,1006.69
2019-05-05T10:00:56.285Z,1006.74
2019-05-05T10:01:56.219Z,1006.68
2019-05-05T10:02:56.248Z,1006.72
2019-05-05T10:03:56.213Z,1006.72
2019-05-05T10:04:56.176Z,1006.65
2019-05-05T10:05:56.537Z,1006.67
2019-05-05T10:06:56.182Z,1006.66
2019-05-05T10:07:56.765Z,1006.63
2019-05-05T10:08:56.215Z,1006.66
2019-05-05T10:09:56.139Z,1006.66
2019-05-05T10:10:56.151Z,1006.73
2019-05-05T10:11:56.110Z,1006.69
2019-05-05T10:12:56.397Z,1006.69
2019-05-05T10:13:56.068Z,1006.69
2019-05-05T10:14:56.199Z,1006.73
2019-05-05T10:15:56.084Z,1006.74
2019-05-05T10:16:56.102Z,1006.74
2019-05-05T10:17:56.099Z,1006.73
2019-05-05T10:18:56.313Z,1006.77
2019-05-05T10:19:56.017Z,1006.79
2019-05-05T10:20:56.106Z,1006.81
2019-05-05T10:21:56.016Z,1006.82
2019-05-05T10:22:56.005Z,1006.83
2019-05-05T10:23:56.010Z,1006.85
2019-05-05T10:24:57.559Z,1006.84
2019-05-05T10:25:55.947Z,1006.80
2019-05-05T10:26:58.439Z,1006.85
2019-05-05T10:27:55.947Z,1006.86
2019-05-05T10:28:55.937Z,1006.84
2019-05-05T10:29:55.917Z,1006.72
2019-05-05T10:30:55.939Z,1006.69
2019-05-05T10:31:55.906Z,1006.72
2019-05-05T10:32:55.928Z,1006.70
2019-05-05T10:33:55.873Z,1006.68
2019-05-05T10:34:55.862Z,1006.69
2019-05-05T10:35:55.839Z,1006.64
2019-05-05T10:36:56.160Z,1006.69
2019-05-05T10:37:55.824Z,1006.72
2019-05-05T10:38:55.878Z,1006.82
2019-05-05T10:39:55.843Z,1006.70
2019-05-05T10:40:55.817Z,1006.72
2019-05-05T10:41:56.129Z,1006.77
2019-05-05T10:42:55.785Z,1006.74
2019-05-05T10:43:55.771Z,1006.65
2019-05-05T10:44:55.822Z,1006.58
2019-05-05T10:45:55.757Z,1006.70
2019-05-05T10:46:55.743Z,1006.54
2019-05-05T10:47:55.791Z,1006.56
2019-05-05T10:48:56.043Z,1006.58
2019-05-05T10:49:55.738Z,1006.54
2019-05-05T10:50:55.775Z,1006.60
2019-05-05T10:51:55.682Z,1006.55
2019-05-05T10:52:55.665Z,1006.60
2019-05-05T10:53:55.670Z,1006.59
2019-05-05T10:54:55.956Z,1006.62
2019-05-05T10:55:55.645Z,1006.61
2019-05-05T10:56:56.635Z,1006.61
2019-05-05T10:57:55.625Z,1006.60
2019-05-05T10:58:55.663Z,1006.64
2019-05-05T11:00:08.593Z,1006.73
2019-05-05T11:00:56.587Z,1006.58
2019-05-05T11:01:55.885Z,1006.64
2019-05-05T11:02:55.602Z,1006.60
2019-05-05T11:03:55.542Z,1006.59
2019-05-05T11:04:55.596Z,1006.72
2019-05-05T11:05:55.575Z,1006.64
2019-05-05T11:06:55.516Z,1006.63
2019-05-05T11:07:55.522Z,1006.63
2019-05-05T11:08:55.647Z,1006.58
2019-05-05T11:09:55.490Z,1006.61
2019-05-05T11:10:55.503Z,1006.56
2019-05-05T11:11:55.474Z,1006.57
2019-05-05T11:12:55.465Z,1006.61
2019-05-05T11:13:55.479Z,1006.64
2019-05-05T11:14:55.515Z,1006.71
2019-05-05T11:15:55.435Z,1006.72
2019-05-05T11:16:55.480Z,1006.74
2019-05-05T11:17:55.424Z,1006.77
2019-05-05T11:18:55.414Z,1006.78
2019-05-05T11:19:55.405Z,1006.71
2019-05-05T11:20:55.796Z,1006.79
2019-05-05T11:21:55.386Z,1006.78
2019-05-05T11:22:55.355Z,1006.83
2019-05-05T11:23:55.344Z,1006.76
2019-05-05T11:25:00.762Z,1006.78
2019-05-05T11:25:56.384Z,1006.77
2019-05-05T11:26:55.311Z,1006.80
2019-05-05T11:27:55.784Z,1006.76
2019-05-05T11:28:55.341Z,1006.75
2019-05-05T11:29:55.286Z,1006.81
2019-05-05T11:30:55.301Z,1006.81
2019-05-05T11:31:55.315Z,1006.86
2019-05-05T11:32:55.655Z,1006.82
2019-05-05T11:33:55.263Z,1006.81
2019-05-05T11:34:55.498Z,1006.81
2019-05-05T11:35:55.251Z,1006.84
2019-05-05T11:36:55.203Z,1006.82
2019-05-05T11:37:55.254Z,1006.82
2019-05-05T11:38:55.176Z,1006.83
2019-05-05T11:39:55.174Z,1006.83
2019-05-05T11:40:55.210Z,1006.82
2019-05-05T11:41:55.453Z,1006.78
2019-05-05T11:42:55.137Z,1006.83
2019-05-05T11:43:55.674Z,1006.84
2019-05-05T11:44:55.113Z,1006.86
2019-05-05T11:45:55.134Z,1006.82
2019-05-05T11:46:55.152Z,1006.79
2019-05-05T11:47:55.123Z,1006.80
2019-05-05T11:48:55.524Z,1006.82
2019-05-05T11:49:56.794Z,1006.82
2019-05-05T11:50:55.126Z,1006.72
2019-05-05T11:51:55.046Z,1006.71
2019-05-05T11:52:55.062Z,1006.83
2019-05-05T11:53:55.075Z,1006.89
2019-05-05T11:55:08.181Z,1006.83
2019-05-05T11:55:56.127Z,1006.79
2019-05-05T11:56:55.087Z,1006.86
2019-05-05T11:57:57.651Z,1006.80
2019-05-05T11:58:54.970Z,1006.93
2019-05-05T11:59:55.003Z,1006.86
2019-05-05T12:00:54.970Z,1006.89
2019-05-05T12:01:55.250Z,1006.91
2019-05-05T12:02:54.932Z,1006.84
2019-05-05T12:03:54.949Z,1006.86
2019-05-05T12:04:54.926Z,1006.83
2019-05-05T12:05:54.899Z,1006.98
2019-05-05T12:06:55.161Z,1007.09
2019-05-05T12:07:54.954Z,1007.05